createdAt,value
2019-02-06T00:02:06.429Z,48.47
2019-02-06T00:04:34.463Z,48.49
2019-02-06T00:07:02.510Z,48.48
2019-02-06T00:09:30.584Z,48.50
2019-02-06T00:12:00.663Z,48.55
2019-02-06T00:14:28.705Z,48.58
2019-02-06T00:16:57.052Z,48.61
2019-02-06T00:19:25.436Z,48.65
2019-02-06T00:21:53.526Z,48.67
2019-02-06T00:24:21.691Z,48.68
2019-02-06T00:26:50.863Z,48.69
2019-02-06T00:29:18.954Z,48.70
2019-02-06T00:31:47.008Z,48.72
2019-02-06T00:34:15.358Z,48.74
2019-02-06T00:36:43.740Z,48.76
2019-02-06T00:39:11.775Z,48.79
2019-02-06T00:41:39.852Z,48.80
2019-02-06T00:44:08.298Z,48.84
2019-02-06T00:46:36.628Z,48.86
2019-02-06T00:49:04.765Z,48.90
2019-02-06T00:51:33.106Z,48.93
2019-02-06T00:54:01.153Z,48.92
2019-02-06T00:56:29.207Z,48.94
2019-02-06T00:58:57.221Z,48.95
2019-02-06T01:01:25.292Z,49.00
2019-02-06T01:03:53.351Z,49.02
2019-02-06T01:06:21.840Z,49.03
2019-02-06T01:08:50.288Z,49.06
2019-02-06T01:11:18.687Z,49.07
2019-02-06T01:13:47.038Z,49.08
2019-02-06T01:16:15.272Z,49.09
2019-02-06T01:18:43.345Z,49.11
2019-02-06T01:21:11.403Z,49.13
2019-02-06T01:23:40.307Z,49.14
2019-02-06T01:26:08.379Z,49.16
2019-02-06T01:28:36.504Z,49.17
2019-02-06T01:31:10.703Z,49.20
2019-02-06T01:33:40.241Z,49.22
2019-02-06T01:36:08.322Z,49.21
2019-02-06T01:38:36.371Z,49.24
2019-02-06T01:41:04.864Z,49.28
2019-02-06T01:43:32.932Z,49.28
2019-02-06T01:46:00.995Z,49.30
2019-02-06T01:48:29.035Z,49.30
2019-02-06T01:50:57.117Z,49.32
2019-02-06T01:53:25.188Z,49.37
2019-02-06T01:55:53.271Z,49.42
2019-02-06T01:58:21.408Z,49.43
2019-02-06T02:00:49.498Z,49.43
2019-02-06T02:03:17.562Z,49.45
2019-02-06T02:05:45.697Z,49.47
2019-02-06T02:08:13.735Z,49.49
2019-02-06T02:10:42.158Z,49.49
2019-02-06T02:13:10.351Z,49.53
2019-02-06T02:15:40.236Z,49.52
2019-02-06T02:18:08.573Z,49.56
2019-02-06T02:20:38.064Z,49.58
2019-02-06T02:23:06.334Z,49.61
2019-02-06T02:25:34.821Z,49.65
2019-02-06T02:28:03.120Z,49.66
2019-02-06T02:30:53.047Z,49.68
2019-02-06T02:33:21.150Z,49.73
2019-02-06T02:35:49.434Z,49.73
2019-02-06T02:38:17.608Z,49.75
2019-02-06T02:40:46.404Z,49.78
2019-02-06T02:43:14.477Z,49.80
2019-02-06T02:45:43.743Z,49.85
2019-02-06T02:48:11.826Z,49.87
2019-02-06T02:50:41.026Z,49.90
2019-02-06T02:53:09.090Z,49.91
2019-02-06T02:55:37.367Z,49.94
2019-02-06T02:58:07.555Z,49.96
2019-02-06T03:00:55.268Z,49.96
2019-02-06T03:03:36.443Z,49.96
2019-02-06T03:06:04.702Z,49.97
2019-02-06T03:08:32.769Z,49.99
2019-02-06T03:11:01.174Z,50.00
2019-02-06T03:13:29.227Z,50.01
2019-02-06T03:15:57.474Z,50.02
2019-02-06T03:18:25.597Z,50.04
2019-02-06T03:20:53.654Z,50.06
2019-02-06T03:23:22.221Z,50.08
2019-02-06T03:25:50.299Z,50.08
2019-02-06T03:28:18.688Z,50.09
2019-02-06T03:30:47.729Z,50.15
2019-02-06T03:33:15.917Z,50.18
2019-02-06T03:35:43.982Z,50.21
2019-02-06T03:38:12.448Z,50.24
2019-02-06T03:40:41.106Z,50.29
2019-02-06T03:43:09.500Z,50.32
2019-02-06T03:45:37.891Z,50.34
2019-02-06T03:48:05.967Z,50.36
2019-02-06T03:50:34.170Z,50.37
2019-02-06T03:53:02.232Z,50.40
2019-02-06T03:55:30.284Z,50.40
2019-02-06T03:57:58.747Z,50.42
2019-02-06T04:00:26.894Z,50.39
2019-02-06T04:02:54.955Z,50.43
2019-02-06T04:05:23.349Z,50.43
2019-02-06T04:07:51.413Z,50.45
2019-02-06T04:10:19.649Z,50.45
2019-02-06T04:12:48.025Z,50.43
2019-02-06T04:15:17.060Z,50.43
2019-02-06T04:17:47.690Z,50.44
2019-02-06T04:20:17.388Z,50.47
2019-02-06T04:22:46.557Z,50.47
2019-02-06T04:25:15.482Z,50.49
2019-02-06T04:27:43.773Z,50.54
2019-02-06T04:30:13.360Z,50.53
2019-02-06T04:32:41.435Z,50.55
2019-02-06T04:35:11.051Z,50.56
2019-02-06T04:37:39.106Z,50.57
2019-02-06T04:40:17.831Z,50.58
2019-02-06T04:42:46.314Z,50.58
2019-02-06T04:45:17.059Z,50.58
2019-02-06T04:47:45.405Z,50.60
2019-02-06T04:50:15.832Z,50.62
2019-02-06T04:52:45.221Z,50.62
2019-02-06T04:55:14.260Z,50.62
2019-02-06T04:57:42.544Z,50.64
2019-02-06T05:00:21.046Z,50.67
2019-02-06T05:02:49.186Z,50.65
2019-02-06T05:05:17.227Z,50.66
2019-02-06T05:07:45.318Z,50.68
2019-02-06T05:10:13.423Z,50.69
2019-02-06T05:12:41.491Z,50.69
2019-02-06T05:15:10.235Z,50.71
2019-02-06T05:17:38.353Z,50.72
2019-02-06T05:20:17.692Z,50.76
2019-02-06T05:22:45.778Z,50.77
2019-02-06T05:25:14.102Z,50.80
2019-02-06T05:27:42.492Z,50.83
2019-02-06T05:30:11.970Z,50.85
2019-02-06T05:32:43.012Z,50.84
2019-02-06T05:35:10.376Z,50.83
2019-02-06T05:37:38.447Z,50.85
2019-02-06T05:40:07.194Z,50.84
2019-02-06T05:42:35.521Z,50.86
2019-02-06T05:45:06.518Z,50.87
2019-02-06T05:47:35.572Z,50.87
2019-02-06T05:50:04.709Z,50.89
2019-02-06T05:52:32.734Z,50.90
2019-02-06T05:55:04.253Z,50.93
2019-02-06T05:57:30.739Z,50.93
2019-02-06T05:59:58.790Z,50.96
2019-02-06T06:02:26.911Z,50.98
2019-02-06T06:04:54.971Z,51.00
2019-02-06T06:07:23.031Z,51.02
2019-02-06T06:09:51.095Z,51.06
2019-02-06T06:12:19.420Z,51.08
2019-02-06T06:14:47.729Z,51.10
2019-02-06T06:17:15.779Z,51.10
2019-02-06T06:19:44.118Z,51.12
2019-02-06T06:22:13.087Z,51.13
2019-02-06T06:24:41.161Z,51.13
2019-02-06T06:27:09.211Z,51.13
2019-02-06T06:29:37.274Z,51.14
2019-02-06T06:32:05.417Z,51.16
2019-02-06T06:34:33.474Z,51.17
2019-02-06T06:37:01.959Z,51.18
2019-02-06T06:39:30.152Z,51.18
2019-02-06T06:41:58.402Z,51.20
2019-02-06T06:44:26.469Z,51.21
2019-02-06T06:46:54.517Z,51.21
2019-02-06T06:49:22.719Z,51.22
2019-02-06T06:51:51.102Z,51.25
2019-02-06T06:54:19.174Z,51.25
2019-02-06T06:56:47.291Z,51.27
2019-02-06T06:59:15.370Z,51.29
2019-02-06T07:01:43.549Z,51.28
2019-02-06T07:04:12.915Z,51.29
2019-02-06T07:06:40.960Z,51.34
2019-02-06T07:09:09.510Z,51.33
2019-02-06T07:11:37.548Z,51.32
2019-02-06T07:14:06.013Z,51.34
2019-02-06T07:16:34.169Z,51.35
2019-02-06T07:19:02.259Z,51.36
2019-02-06T07:21:30.375Z,51.35
2019-02-06T07:23:58.582Z,51.34
2019-02-06T07:26:27.036Z,51.33
2019-02-06T07:28:55.095Z,51.31
2019-02-06T07:31:23.283Z,51.30
2019-02-06T07:33:51.754Z,51.28
2019-02-06T07:36:19.839Z,51.29
2019-02-06T07:38:48.319Z,51.27
2019-02-06T07:41:16.386Z,51.29
2019-02-06T07:43:44.859Z,51.28
2019-02-06T07:46:14.163Z,51.25
2019-02-06T07:48:42.274Z,51.19
2019-02-06T07:51:10.573Z,51.11
2019-02-06T07:53:38.925Z,50.99
2019-02-06T07:56:06.993Z,50.88
2019-02-06T07:58:35.047Z,50.80
2019-02-06T08:01:03.734Z,50.66
2019-02-06T08:03:31.890Z,50.50
2019-02-06T08:06:00.343Z,50.35
2019-02-06T08:08:36.273Z,50.21
2019-02-06T08:10:58.762Z,50.07
2019-02-06T08:13:26.821Z,49.89
2019-02-06T08:15:54.847Z,49.67
2019-02-06T08:18:22.901Z,49.44
2019-02-06T08:20:50.938Z,49.27
2019-02-06T08:23:19.023Z,49.14
2019-02-06T08:25:47.052Z,49.05
2019-02-06T08:28:15.142Z,48.89
2019-02-06T08:30:43.583Z,48.71
2019-02-06T08:33:12.309Z,48.55
2019-02-06T08:35:40.341Z,48.33
2019-02-06T08:38:08.494Z,48.12
2019-02-06T08:40:36.541Z,47.84
2019-02-06T08:43:04.824Z,47.68
2019-02-06T08:45:32.875Z,47.54
2019-02-06T08:48:01.158Z,47.38
2019-02-06T08:50:29.638Z,47.15
2019-02-06T08:52:58.119Z,47.17
2019-02-06T08:55:28.051Z,47.26
2019-02-06T08:57:56.111Z,47.17
2019-02-06T09:00:36.822Z,47.10
2019-02-06T09:03:07.359Z,47.15
2019-02-06T09:05:36.748Z,47.42
2019-02-06T09:08:05.416Z,47.58
2019-02-06T09:10:33.486Z,47.55
2019-02-06T09:13:02.136Z,47.27
2019-02-06T09:15:31.197Z,47.06
2019-02-06T09:17:59.322Z,46.83
2019-02-06T09:20:29.639Z,46.58
2019-02-06T09:22:58.403Z,46.28
2019-02-06T09:25:28.261Z,46.01
2019-02-06T09:27:56.416Z,45.78
2019-02-06T09:30:26.555Z,45.45
2019-02-06T09:32:55.240Z,45.07
2019-02-06T09:35:23.622Z,44.85
2019-02-06T09:37:52.080Z,44.62
2019-02-06T09:40:23.370Z,44.38
2019-02-06T09:42:51.434Z,44.14
2019-02-06T09:45:19.602Z,43.96
2019-02-06T09:47:49.148Z,43.89
2019-02-06T09:50:27.026Z,43.82
2019-02-06T09:52:55.255Z,43.65
2019-02-06T09:55:23.327Z,43.58
2019-02-06T09:57:51.655Z,43.60
2019-02-06T10:00:23.281Z,43.42
2019-02-06T10:02:51.457Z,43.21
2019-02-06T10:05:20.050Z,43.17
2019-02-06T10:07:48.082Z,43.46
2019-02-06T10:10:18.513Z,43.68
2019-02-06T10:12:46.780Z,43.94
2019-02-06T10:15:19.041Z,44.32
2019-02-06T10:17:47.250Z,44.67
2019-02-06T10:20:16.783Z,44.78
2019-02-06T10:22:44.844Z,44.88
2019-02-06T10:25:13.333Z,44.97
2019-02-06T10:27:41.376Z,45.04
2019-02-06T10:30:20.230Z,45.17
2019-02-06T10:32:48.277Z,45.13
2019-02-06T10:35:16.826Z,45.11
2019-02-06T10:37:44.859Z,44.83
2019-02-06T10:40:14.867Z,44.57
2019-02-06T10:42:42.913Z,44.28
2019-02-06T10:45:11.359Z,44.08
2019-02-06T10:47:39.372Z,43.85
2019-02-06T10:50:09.611Z,43.56
2019-02-06T10:52:37.628Z,43.25
2019-02-06T10:55:06.537Z,42.98
2019-02-06T10:57:34.595Z,42.71
2019-02-06T11:00:08.336Z,42.41
2019-02-06T11:02:36.721Z,42.22
2019-02-06T11:05:05.201Z,42.21
2019-02-06T11:07:33.593Z,42.16
2019-02-06T11:10:03.864Z,41.99
2019-02-06T11:12:31.996Z,41.96
2019-02-06T11:15:00.901Z,42.17
2019-02-06T11:17:28.978Z,42.43
2019-02-06T11:19:57.437Z,42.33
2019-02-06T11:22:26.296Z,42.11
2019-02-06T11:24:54.443Z,42.02
2019-02-06T11:27:22.737Z,41.89
2019-02-06T11:29:51.440Z,41.87
2019-02-06T11:32:19.526Z,41.75
2019-02-06T11:34:47.651Z,41.56
2019-02-06T11:37:15.819Z,41.30
2019-02-06T11:39:57.292Z,40.91
2019-02-06T11:42:15.904Z,40.51
2019-02-06T11:44:43.982Z,40.09
2019-02-06T11:47:12.004Z,39.79
2019-02-06T11:49:42.274Z,39.47
2019-02-06T11:52:10.275Z,39.11
2019-02-06T11:54:38.742Z,39.05
2019-02-06T11:57:07.027Z,38.95
2019-02-06T11:59:36.422Z,38.85
2019-02-06T12:02:04.785Z,38.55
2019-02-06T12:04:32.850Z,38.11
2019-02-06T12:07:00.906Z,37.73
2019-02-06T12:09:29.084Z,37.47
2019-02-06T12:11:57.520Z,37.23
2019-02-06T12:14:25.773Z,37.04
2019-02-06T12:16:54.378Z,36.88
2019-02-06T12:19:22.517Z,36.70
2019-02-06T12:21:52.693Z,36.64
2019-02-06T12:24:20.817Z,36.51
2019-02-06T12:26:49.187Z,36.29
2019-02-06T12:29:17.448Z,36.00
2019-02-06T12:31:45.520Z,35.75
2019-02-06T12:34:15.695Z,35.92
2019-02-06T12:36:43.741Z,36.11
2019-02-06T12:39:11.791Z,36.06
2019-02-06T12:41:39.934Z,35.84
2019-02-06T12:44:07.965Z,35.60
2019-02-06T12:46:36.093Z,35.38
2019-02-06T12:49:04.826Z,35.48
2019-02-06T12:51:33.000Z,35.38
2019-02-06T12:54:01.154Z,35.12
2019-02-06T12:56:29.216Z,34.78
2019-02-06T12:58:57.388Z,34.60
2019-02-06T13:01:25.593Z,34.39
2019-02-06T13:03:53.760Z,34.16
2019-02-06T13:06:22.217Z,33.92
2019-02-06T13:08:50.240Z,33.64
2019-02-06T13:11:18.371Z,33.51
2019-02-06T13:13:46.438Z,33.73
2019-02-06T13:16:16.001Z,33.79
2019-02-06T13:18:44.111Z,33.70
2019-02-06T13:21:12.175Z,33.49
2019-02-06T13:23:40.715Z,33.20
2019-02-06T13:26:08.883Z,33.05
2019-02-06T13:28:36.912Z,32.97
2019-02-06T13:31:04.938Z,33.41
2019-02-06T13:33:33.050Z,33.41
2019-02-06T13:36:01.769Z,33.18
2019-02-06T13:38:30.014Z,33.00
2019-02-06T13:41:12.543Z,32.90
2019-02-06T13:43:56.580Z,32.69
2019-02-06T13:46:26.905Z,32.65
2019-02-06T13:48:55.240Z,32.84
2019-02-06T13:51:23.278Z,32.88
2019-02-06T13:53:51.639Z,32.97
2019-02-06T13:56:19.664Z,33.14
2019-02-06T13:58:47.759Z,33.32
2019-02-06T14:01:25.438Z,33.31
2019-02-06T14:03:45.836Z,33.29
2019-02-06T14:06:15.802Z,33.35
2019-02-06T14:08:43.948Z,33.45
2019-02-06T14:11:12.504Z,33.51
2019-02-06T14:13:40.505Z,33.51
2019-02-06T14:16:09.232Z,33.37
2019-02-06T14:18:37.372Z,33.30
2019-02-06T14:21:05.781Z,33.23
2019-02-06T14:24:02.334Z,33.12
2019-02-06T14:26:53.891Z,33.12
2019-02-06T14:30:00.956Z,33.20
2019-02-06T14:33:57.525Z,33.35
2019-02-06T14:37:19.363Z,33.42
2019-02-06T14:41:08.671Z,33.48
2019-02-06T14:44:33.672Z,33.68
2019-02-06T14:48:12.342Z,33.93
2019-02-06T14:51:50.953Z,33.91
2019-02-06T14:54:51.957Z,33.93
2019-02-06T14:58:29.380Z,34.05
2019-02-06T15:02:16.027Z,34.17
2019-02-06T15:05:42.754Z,34.27
2019-02-06T15:08:53.199Z,34.30
2019-02-06T15:12:48.893Z,34.28
2019-02-06T15:16:30.460Z,34.18
2019-02-06T15:19:23.488Z,34.18
2019-02-06T15:22:42.456Z,34.21
2019-02-06T15:25:53.560Z,34.10
2019-02-06T15:29:06.016Z,34.17
2019-02-06T15:32:34.159Z,34.44
2019-02-06T15:35:43.589Z,34.82
2019-02-06T15:39:00.805Z,35.28
2019-02-06T15:42:08.203Z,35.73
2019-02-06T15:45:18.681Z,36.17
2019-02-06T15:48:34.903Z,36.43
2019-02-06T15:52:06.825Z,36.57
2019-02-06T15:55:24.689Z,36.66
2019-02-06T15:58:40.988Z,36.79
2019-02-06T16:02:08.052Z,36.89
2019-02-06T16:05:42.857Z,36.96
2019-02-06T16:08:51.959Z,36.97
2019-02-06T16:12:05.396Z,37.01
2019-02-06T16:15:01.587Z,37.04
2019-02-06T16:18:17.884Z,37.04
2019-02-06T16:21:53.278Z,37.02
2019-02-06T16:24:53.590Z,37.01
2019-02-06T16:28:16.526Z,37.00
2019-02-06T16:31:34.772Z,36.99
2019-02-06T16:34:58.994Z,36.99
2019-02-06T16:38:16.404Z,37.05
2019-02-06T16:41:53.361Z,37.13
2019-02-06T16:45:43.532Z,37.18
2019-02-06T16:48:53.676Z,37.29
2019-02-06T16:52:23.358Z,37.43
2019-02-06T16:55:39.866Z,37.57
2019-02-06T16:59:46.991Z,37.72
2019-02-06T17:03:32.137Z,37.83
2019-02-06T17:06:50.877Z,38.00
2019-02-06T17:09:51.462Z,38.10
2019-02-06T17:13:02.408Z,38.22
2019-02-06T17:16:22.093Z,38.33
2019-02-06T17:20:12.674Z,38.46
2019-02-06T17:23:38.624Z,38.55
2019-02-06T17:27:16.420Z,38.63
2019-02-06T17:30:37.584Z,38.72
2019-02-06T17:34:14.612Z,38.82
2019-02-06T17:37:49.615Z,38.94
2019-02-06T17:41:24.661Z,39.15
2019-02-06T17:44:47.708Z,39.29
2019-02-06T17:48:14.596Z,39.47
2019-02-06T17:51:51.253Z,39.62
2019-02-06T17:54:49.075Z,39.87
2019-02-06T17:57:17.380Z,40.11
2019-02-06T17:59:45.583Z,40.28
2019-02-06T18:02:13.859Z,40.42
2019-02-06T18:04:44.907Z,40.55
2019-02-06T18:07:14.145Z,40.62
2019-02-06T18:09:42.329Z,40.71
2019-02-06T18:12:10.719Z,40.84
2019-02-06T18:14:38.856Z,40.97
2019-02-06T18:17:06.914Z,41.09
2019-02-06T18:19:40.034Z,41.19
2019-02-06T18:22:09.125Z,41.25
2019-02-06T18:24:37.667Z,41.29
2019-02-06T18:27:06.755Z,41.33
2019-02-06T18:29:34.991Z,41.40
2019-02-06T18:32:04.262Z,41.45
2019-02-06T18:34:32.338Z,41.52
2019-02-06T18:37:00.788Z,41.57
2019-02-06T18:39:28.987Z,41.61
2019-02-06T18:41:57.241Z,41.67
2019-02-06T18:44:25.938Z,41.72
2019-02-06T18:46:56.828Z,41.77
2019-02-06T18:49:25.403Z,41.83
2019-02-06T18:51:55.026Z,41.93
2019-02-06T18:54:24.280Z,41.99
2019-02-06T18:56:52.452Z,42.03
2019-02-06T18:59:20.675Z,42.10
2019-02-06T19:01:49.511Z,42.18
2019-02-06T19:04:20.147Z,42.31
2019-02-06T19:06:48.985Z,42.49
2019-02-06T19:09:17.759Z,42.61
2019-02-06T19:11:46.469Z,42.72
2019-02-06T19:14:14.896Z,42.81
2019-02-06T19:16:44.654Z,42.89
2019-02-06T19:19:12.982Z,42.94
2019-02-06T19:21:41.767Z,42.99
2019-02-06T19:24:09.877Z,43.06
2019-02-06T19:26:38.415Z,43.11
2019-02-06T19:29:07.356Z,43.19
2019-02-06T19:31:35.974Z,43.28
2019-02-06T19:34:05.238Z,43.35
2019-02-06T19:36:33.404Z,43.42
2019-02-06T19:39:01.461Z,43.51
2019-02-06T19:41:31.293Z,43.56
2019-02-06T19:43:59.603Z,43.63
2019-02-06T19:46:27.889Z,43.68
2019-02-06T19:48:55.962Z,43.72
2019-02-06T19:51:25.092Z,43.77
2019-02-06T19:53:53.292Z,43.81
2019-02-06T19:56:22.111Z,43.87
2019-02-06T19:58:52.133Z,43.91
2019-02-06T20:01:20.364Z,43.94
2019-02-06T20:03:48.587Z,43.96
2019-02-06T20:06:28.231Z,44.00
2019-02-06T20:09:00.132Z,44.07
2019-02-06T20:11:29.399Z,44.08
2019-02-06T20:13:58.090Z,44.15
2019-02-06T20:16:26.532Z,44.22
2019-02-06T20:18:54.599Z,44.25
2019-02-06T20:21:23.077Z,44.33
2019-02-06T20:23:51.752Z,44.38
2019-02-06T20:26:20.385Z,44.45
2019-02-06T20:28:48.666Z,44.51
2019-02-06T20:31:17.289Z,44.55
2019-02-06T20:33:45.629Z,44.61
2019-02-06T20:36:13.698Z,44.66
2019-02-06T20:38:41.764Z,44.74
2019-02-06T20:41:10.019Z,44.76
2019-02-06T20:43:38.257Z,44.84
2019-02-06T20:46:06.326Z,44.88
2019-02-06T20:48:34.667Z,44.95
2019-02-06T20:51:04.254Z,45.01
2019-02-06T20:53:33.359Z,45.05
2019-02-06T20:56:03.355Z,45.13
2019-02-06T20:58:31.589Z,45.17
2019-02-06T21:00:59.755Z,45.22
2019-02-06T21:03:29.360Z,45.26
2019-02-06T21:05:57.419Z,45.30
2019-02-06T21:08:25.554Z,45.32
2019-02-06T21:10:55.216Z,45.35
2019-02-06T21:13:32.714Z,45.39
2019-02-06T21:15:53.886Z,45.39
2019-02-06T21:18:23.633Z,45.40
2019-02-06T21:20:52.128Z,45.45
2019-02-06T21:23:20.388Z,45.48
2019-02-06T21:25:48.409Z,45.55
2019-02-06T21:28:19.401Z,45.60
2019-02-06T21:30:49.292Z,45.61
2019-02-06T21:33:17.740Z,45.63
2019-02-06T21:35:46.171Z,45.66
2019-02-06T21:38:14.457Z,45.70
2019-02-06T21:40:42.939Z,45.75
2019-02-06T21:43:11.185Z,45.78
2019-02-06T21:45:39.578Z,45.83
2019-02-06T21:48:08.010Z,45.84
2019-02-06T21:50:38.949Z,45.87
2019-02-06T21:53:07.189Z,45.89
2019-02-06T21:55:36.696Z,45.90
2019-02-06T21:58:05.488Z,45.93
2019-02-06T22:00:37.914Z,45.97
2019-02-06T22:03:06.112Z,46.03
2019-02-06T22:05:34.436Z,46.10
2019-02-06T22:08:03.119Z,46.10
2019-02-06T22:10:32.378Z,46.17
2019-02-06T22:13:00.783Z,46.20
2019-02-06T22:15:30.705Z,46.25
2019-02-06T22:18:00.739Z,46.32
2019-02-06T22:20:29.432Z,46.34
2019-02-06T22:22:58.094Z,46.33
2019-02-06T22:25:26.373Z,46.37
2019-02-06T22:27:54.551Z,46.40
2019-02-06T22:30:25.063Z,46.44
2019-02-06T22:32:53.141Z,46.47
2019-02-06T22:35:22.047Z,46.49
2019-02-06T22:37:53.299Z,46.51
2019-02-06T22:40:22.877Z,46.54
2019-02-06T22:42:51.012Z,46.55
2019-02-06T22:45:21.954Z,46.57
2019-02-06T22:47:50.915Z,46.59
2019-02-06T22:50:23.213Z,46.60
2019-02-06T22:52:51.590Z,46.62
2019-02-06T22:55:19.975Z,46.65
2019-02-06T22:57:48.176Z,46.69
2019-02-06T23:01:06.421Z,46.71
2019-02-06T23:03:39.087Z,46.73
2019-02-06T23:06:08.924Z,46.72
2019-02-06T23:08:37.305Z,46.81
2019-02-06T23:11:07.002Z,46.88
2019-02-06T23:13:35.705Z,46.92
2019-02-06T23:16:04.444Z,46.96
2019-02-06T23:18:32.659Z,47.02
2019-02-06T23:21:00.713Z,47.03
2019-02-06T23:23:29.885Z,47.06
2019-02-06T23:26:00.264Z,47.08
2019-02-06T23:28:28.384Z,47.10
2019-02-06T23:30:56.564Z,47.12
2019-02-06T23:33:24.677Z,47.13
2019-02-06T23:35:52.739Z,47.15
2019-02-06T23:38:20.880Z,47.16
2019-02-06T23:40:49.238Z,47.21
2019-02-06T23:43:18.503Z,47.21
2019-02-06T23:45:46.676Z,47.25
2019-02-06T23:48:14.873Z,47.27
2019-02-06T23:50:44.038Z,47.33
2019-02-06T23:53:12.268Z,47.32
2019-02-06T23:55:41.802Z,47.32
2019-02-06T23:58:09.971Z,47.37
